Time;durP1;ratioP1;P1;durP2;ratioP2;P2;SDS_P1;SDS_P2;PMS_P1;PMS_P2;Temp;Humidity;BMP_temperature;BMP_pressure;BME280_temperature;BME280_humidity;BME280_pressure;Samples;Min_cycle;Max_cycle;Signal;HPM_P1;HPM_P2
2023/05/31 00:00:24;;;;;;;13.50;7.25;;;;;;;-142.57;72.46;115900.28;4883178;29;20077;-85
2023/05/31 00:02:50;;;;;;;13.88;7.82;;;;;;;-142.57;73.10;115900.28;4884128;29;20367;-84
2023/05/31 00:05:15;;;;;;;14.20;8.10;;;;;;;-142.57;74.43;115900.28;4870595;29;20037;-86
2023/05/31 00:07:41;;;;;;;15.55;7.80;;;;;;;-142.57;76.14;115900.28;4893346;29;20021;-86
2023/05/31 00:10:07;;;;;;;16.65;8.70;;;;;;;-142.57;76.79;115900.28;4880574;29;20029;-83
2023/05/31 00:12:32;;;;;;;12.95;7.57;;;;;;;-142.57;76.61;115900.28;4884356;29;20033;-84
2023/05/31 00:14:58;;;;;;;15.52;8.43;;;;;;;-142.57;76.25;115900.28;4883391;29;20041;-84
2023/05/31 00:17:23;;;;;;;25.95;9.77;;;;;;;-142.57;76.76;115900.28;4887448;29;20081;-82
2023/05/31 00:19:49;;;;;;;23.10;8.77;;;;;;;-142.57;77.44;115900.28;4887080;29;20511;-84
2023/05/31 00:22:16;;;;;;;15.95;9.02;;;;;;;-142.57;77.65;115900.28;4887790;29;20125;-83
2023/05/31 00:24:43;;;;;;;19.02;8.40;;;;;;;-142.57;77.66;115900.28;4884962;29;20064;-85
2023/05/31 00:27:08;;;;;;;17.27;8.75;;;;;;;-142.57;80.66;115900.28;4883699;29;20120;-84
2023/05/31 00:29:34;;;;;;;17.52;8.75;;;;;;;-142.57;83.71;115900.28;4881956;29;20465;-84
2023/05/31 00:32:00;;;;;;;24.23;9.75;;;;;;;-142.57;85.51;115900.28;4853648;29;20086;-83
2023/05/31 00:34:26;;;;;;;13.75;8.55;;;;;;;-142.57;86.38;115900.28;4885338;29;20123;-82
2023/05/31 00:36:52;;;;;;;19.20;10.02;;;;;;;-142.57;86.98;115900.28;4866994;29;20102;-85
2023/05/31 00:39:18;;;;;;;15.95;9.13;;;;;;;-142.57;86.71;115900.28;4881442;29;20033;-83
2023/05/31 00:41:44;;;;;;;18.90;9.93;;;;;;;-142.57;87.87;115900.28;4864901;29;20516;-84
2023/05/31 00:44:10;;;;;;;18.85;9.35;;;;;;;-142.57;87.69;115900.28;4864493;29;20029;-82
2023/05/31 00:46:38;;;;;;;19.13;10.13;;;;;;;-142.57;87.36;115900.28;4863886;29;20041;-83
2023/05/31 00:49:04;;;;;;;15.68;9.60;;;;;;;-142.57;89.32;115900.28;4864538;29;20048;-82
2023/05/31 00:51:31;;;;;;;25.13;9.93;;;;;;;-142.57;89.49;115900.28;4881538;29;20100;-83
2023/05/31 00:53:58;;;;;;;20.90;9.20;;;;;;;-142.57;88.08;115900.28;4864211;29;20048;-83
2023/05/31 00:56:24;;;;;;;19.05;9.90;;;;;;;-142.57;86.41;115900.28;4880432;29;20029;-85
2023/05/31 00:58:52;;;;;;;16.95;9.48;;;;;;;-142.57;87.88;115900.28;4879854;29;20089;-88
2023/05/31 01:01:21;;;;;;;16.17;9.35;;;;;;;-142.57;84.57;115900.28;4880219;29;20137;-82
2023/05/31 01:03:47;;;;;;;19.55;9.35;;;;;;;-142.57;86.22;115900.28;4863143;29;20549;-85
2023/05/31 01:06:12;;;;;;;25.45;10.30;;;;;;;-142.57;88.27;115900.28;4880439;29;20124;-85
2023/05/31 01:08:39;;;;;;;17.90;10.05;;;;;;;-142.57;90.96;115900.28;4880278;29;20475;-85
2023/05/31 01:11:22;;;;;;;18.10;9.18;;;;;;;-142.57;92.99;115900.28;4880833;29;20033;-81
2023/05/31 01:14:01;;;;;;;19.73;10.05;;;;;;;-142.57;93.10;115900.28;4863447;29;20041;-82
2023/05/31 01:16:35;;;;;;;18.40;10.38;;;;;;;-142.57;92.48;115900.28;4880402;29;20634;-82
2023/05/31 01:19:06;;;;;;;18.90;9.63;;;;;;;-142.57;95.03;115900.28;4862719;29;20120;-84
2023/05/31 01:21:52;;;;;;;17.52;10.13;;;;;;;-142.57;98.32;115900.28;4879589;29;20499;-82
2023/05/31 01:24:40;;;;;;;38.30;11.05;;;;;;;-142.57;99.46;115900.28;4879547;29;20177;-82
2023/05/31 01:27:06;;;;;;;21.33;11.25;;;;;;;-142.57;100.00;115900.28;4862654;29;20041;-82
2023/05/31 01:29:37;;;;;;;23.25;10.63;;;;;;;-142.57;100.00;115900.28;4879621;29;20052;-82
2023/05/31 01:32:04;;;;;;;26.23;10.30;;;;;;;-142.57;100.00;115900.28;4879354;29;20099;-82
2023/05/31 01:34:30;;;;;;;17.52;10.30;;;;;;;-142.57;100.00;115900.28;4879286;29;20037;-84
2023/05/31 01:36:56;;;;;;;22.10;10.57;;;;;;;-142.57;100.00;115900.28;4846855;29;20525;-82
2023/05/31 01:39:21;;;;;;;18.65;9.50;;;;;;;-142.57;100.00;115900.28;4879318;29;20081;-86
2023/05/31 01:41:50;;;;;;;16.42;8.75;;;;;;;-142.57;100.00;115900.28;4862397;29;20037;-83
2023/05/31 01:44:18;;;;;;;21.40;10.32;;;;;;;-142.57;100.00;115900.28;4879361;29;20037;-83
2023/05/31 01:46:45;;;;;;;21.98;10.20;;;;;;;-142.57;100.00;115900.28;4862195;29;20025;-83
2023/05/31 01:49:11;;;;;;;17.52;9.45;;;;;;;-142.57;100.00;115900.28;4879068;29;20052;-82
2023/05/31 01:51:40;;;;;;;20.17;9.55;;;;;;;-142.57;100.00;115900.28;4878911;29;20052;-83
2023/05/31 01:54:05;;;;;;;18.77;9.20;;;;;;;-142.57;100.00;115900.28;4878897;29;20172;-83
2023/05/31 01:56:36;;;;;;;22.02;9.45;;;;;;;-142.57;100.00;115900.28;4862294;29;20390;-82
2023/05/31 01:59:06;;;;;;;21.67;9.88;;;;;;;-142.57;100.00;115900.28;4862062;29;20052;-82
2023/05/31 02:01:31;;;;;;;22.05;8.85;;;;;;;-142.57;99.96;115900.28;4862003;29;20100;-84
2023/05/31 02:03:57;;;;;;;18.90;9.00;;;;;;;-142.57;99.64;115900.28;4862612;29;20040;-83
2023/05/31 02:06:27;;;;;;;21.52;9.43;;;;;;;-142.57;99.13;115900.28;4862286;29;20072;-83
2023/05/31 02:08:54;;;;;;;22.73;8.45;;;;;;;-142.57;98.48;115900.28;4862142;29;20079;-83
2023/05/31 02:11:23;;;;;;;15.85;8.35;;;;;;;-142.57;97.69;115900.28;4862313;29;20483;-82
2023/05/31 02:13:48;;;;;;;18.38;9.50;;;;;;;-142.57;96.92;115900.28;4879029;29;20101;-84
2023/05/31 02:16:14;;;;;;;20.02;8.88;;;;;;;-142.57;95.65;115900.28;4862315;29;20522;-82
2023/05/31 02:18:40;;;;;;;17.77;8.88;;;;;;;-142.57;94.41;115900.28;4862296;29;20049;-83
2023/05/31 02:21:06;;;;;;;19.73;8.60;;;;;;;-142.57;93.49;115900.28;4862166;29;20045;-83
2023/05/31 02:23:31;;;;;;;18.17;8.50;;;;;;;-142.57;94.93;115900.28;4879076;29;20376;-83
2023/05/31 02:25:57;;;;;;;21.27;8.68;;;;;;;-142.57;94.21;115900.28;4878897;29;20045;-84
2023/05/31 02:28:23;;;;;;;17.65;8.25;;;;;;;-142.57;93.00;115900.28;4878498;29;20045;-82
2023/05/31 02:30:58;;;;;;;25.70;8.73;;;;;;;-142.57;92.84;115900.28;4861884;29;20028;-82
2023/05/31 02:33:24;;;;;;;17.88;8.40;;;;;;;-142.57;92.57;115900.28;4861735;29;20049;-82
2023/05/31 02:35:50;;;;;;;19.10;8.88;;;;;;;-142.57;92.67;115900.28;4878447;29;20193;-87
2023/05/31 02:38:16;;;;;;;18.23;8.80;;;;;;;-142.57;92.41;115900.28;4878615;29;20053;-84
2023/05/31 02:40:43;;;;;;;18.08;8.38;;;;;;;-142.57;92.41;115900.28;4878336;29;20044;-82
2023/05/31 02:43:10;;;;;;;16.75;7.65;;;;;;;-142.57;93.08;115900.28;4861675;29;20029;-81
2023/05/31 02:45:35;;;;;;;18.60;7.65;;;;;;;-142.57;93.88;115900.28;4862165;29;20133;-83
2023/05/31 02:48:04;;;;;;;19.73;8.75;;;;;;;-142.57;92.97;115900.28;4877446;29;20078;-81
2023/05/31 02:50:32;;;;;;;14.63;7.85;;;;;;;-142.57;92.12;115900.28;4861526;29;20132;-82
2023/05/31 02:53:00;;;;;;;12.90;8.40;;;;;;;-142.57;91.82;115900.28;4878660;29;20181;-84
2023/05/31 02:55:34;;;;;;;13.73;7.93;;;;;;;-142.57;91.34;115900.28;4861724;29;20052;-84
2023/05/31 02:58:22;;;;;;;17.58;8.60;;;;;;;-142.57;91.51;115900.28;4845591;29;20053;-84
2023/05/31 03:01:14;;;;;;;21.08;8.40;;;;;;;-142.57;90.71;115900.28;4890389;29;20048;-84
2023/05/31 03:03:50;;;;;;;15.00;8.63;;;;;;;-142.57;91.70;115900.28;4871919;29;20510;-84
2023/05/31 03:06:21;;;;;;;20.20;8.45;;;;;;;-142.57;91.33;115900.28;4862311;29;20503;-83
2023/05/31 03:08:48;;;;;;;16.02;8.23;;;;;;;-142.57;92.79;115900.28;4862091;29;20041;-83
2023/05/31 03:11:14;;;;;;;15.82;7.35;;;;;;;-142.57;93.71;115900.28;4861840;29;20122;-83
2023/05/31 03:13:39;;;;;;;14.40;8.75;;;;;;;-142.57;92.38;115900.28;4862139;29;20172;-84
2023/05/31 03:16:05;;;;;;;14.13;8.27;;;;;;;-142.57;92.93;115900.28;4861597;29;20041;-84
2023/05/31 03:18:31;;;;;;;13.00;8.05;;;;;;;-142.57;93.54;115900.28;4861226;29;20510;-83
2023/05/31 03:20:56;;;;;;;19.50;8.70;;;;;;;-142.57;92.95;115900.28;4861109;29;20052;-84
2023/05/31 03:23:23;;;;;;;14.43;8.20;;;;;;;-142.57;93.10;115900.28;4861886;29;20044;-82
2023/05/31 03:25:49;;;;;;;18.08;8.55;;;;;;;-142.57;92.98;115900.28;4878951;29;20403;-81
2023/05/31 03:28:15;;;;;;;12.57;7.85;;;;;;;-142.57;93.43;115900.28;4861542;29;20033;-82
2023/05/31 03:30:41;;;;;;;19.08;8.73;;;;;;;-142.57;92.40;115900.28;4861597;29;20041;-82
2023/05/31 03:33:08;;;;;;;14.57;8.45;;;;;;;-142.57;93.41;115900.28;4861743;29;20048;-83
2023/05/31 03:35:35;;;;;;;18.48;8.68;;;;;;;-142.57;95.21;115900.28;4861140;29;20041;-82
2023/05/31 03:38:02;;;;;;;14.80;8.95;;;;;;;-142.57;94.96;115900.28;4860711;29;20037;-84
2023/05/31 03:40:28;;;;;;;15.00;8.82;;;;;;;-142.57;95.68;115900.28;4861133;29;20071;-82
2023/05/31 03:42:54;;;;;;;13.95;8.70;;;;;;;-142.57;96.16;115900.28;4860787;29;20124;-83
2023/05/31 03:45:21;;;;;;;18.10;8.52;;;;;;;-142.57;95.48;115900.28;4860749;29;20045;-82
2023/05/31 03:47:50;;;;;;;17.05;9.40;;;;;;;-142.57;96.24;115900.28;4877641;29;20511;-82
2023/05/31 03:50:16;;;;;;;18.23;8.48;;;;;;;-142.57;95.41;115900.28;4860661;29;20518;-82
2023/05/31 03:52:45;;;;;;;15.63;8.23;;;;;;;-142.57;98.12;115900.28;4860784;29;20037;-82
2023/05/31 03:55:10;;;;;;;20.50;8.32;;;;;;;-142.57;99.42;115900.28;4860451;29;20499;-82
2023/05/31 03:57:37;;;;;;;20.60;8.73;;;;;;;-142.57;100.00;115900.28;4860865;29;20037;-83
2023/05/31 04:00:03;;;;;;;17.83;8.68;;;;;;;-142.57;100.00;115900.28;4862858;29;20360;-82
2023/05/31 04:02:39;;;;;;;21.95;8.40;;;;;;;-142.57;100.00;115900.28;4880857;29;20033;-83
2023/05/31 04:05:06;;;;;;;15.75;8.93;;;;;;;-142.57;100.00;115900.28;4864219;29;20041;-83
2023/05/31 04:07:32;;;;;;;18.35;8.88;;;;;;;-142.57;100.00;115900.28;4863748;29;20039;-83
2023/05/31 04:09:58;;;;;;;13.30;7.90;;;;;;;-142.57;100.00;115900.28;4863852;29;20044;-82
2023/05/31 04:12:24;;;;;;;18.17;9.50;;;;;;;-142.57;100.00;115900.28;4863569;29;20465;-83
2023/05/31 04:14:51;;;;;;;18.35;8.90;;;;;;;-142.57;100.00;115900.28;4863920;29;20033;-82
2023/05/31 04:17:20;;;;;;;17.27;8.10;;;;;;;-142.57;100.00;115900.28;4863683;29;20394;-82
2023/05/31 04:19:46;;;;;;;19.88;9.07;;;;;;;-142.57;99.70;115900.28;4880696;29;20559;-82
2023/05/31 04:22:13;;;;;;;24.73;9.25;;;;;;;-142.57;99.29;115900.28;4880212;29;20029;-83
2023/05/31 04:24:40;;;;;;;15.10;8.63;;;;;;;-142.57;99.00;115900.28;4880284;29;20447;-82
2023/05/31 04:27:08;;;;;;;19.20;9.57;;;;;;;-142.57;99.40;115900.28;4880589;29;20522;-82
2023/05/31 04:29:37;;;;;;;17.88;9.07;;;;;;;-142.57;100.00;115900.28;4880572;29;20536;-82
2023/05/31 04:32:07;;;;;;;32.72;10.27;;;;;;;-142.57;99.27;115900.28;4880220;29;20452;-82
2023/05/31 04:34:36;;;;;;;19.52;9.98;;;;;;;-142.57;98.99;115900.28;4880799;29;20479;-82
2023/05/31 04:37:04;;;;;;;17.15;9.23;;;;;;;-142.57;98.72;115900.28;4880617;29;20376;-85
2023/05/31 04:39:31;;;;;;;22.10;9.75;;;;;;;-142.57;99.13;115900.28;4880492;29;20555;-82
2023/05/31 04:42:02;;;;;;;18.13;9.93;;;;;;;-142.57;98.93;115900.28;4864061;29;20140;-83
2023/05/31 04:44:28;;;;;;;20.20;10.32;;;;;;;-142.57;100.00;115900.28;4880759;29;20441;-82
2023/05/31 04:46:56;;;;;;;22.02;10.35;;;;;;;-142.57;99.18;115900.28;4880579;29;20045;-83
2023/05/31 04:49:24;;;;;;;19.38;9.73;;;;;;;-142.57;99.92;115900.28;4863375;29;20044;-82
2023/05/31 04:51:50;;;;;;;19.75;9.63;;;;;;;-142.57;100.00;115900.28;4880363;29;20045;-84
2023/05/31 04:54:17;;;;;;;19.85;10.13;;;;;;;-142.57;100.00;115900.28;4880459;29;20499;-81
2023/05/31 04:56:45;;;;;;;19.75;9.75;;;;;;;-142.57;100.00;115900.28;4863757;29;20033;-82
2023/05/31 04:59:12;;;;;;;27.38;9.93;;;;;;;-142.57;100.00;115900.28;4880286;29;20503;-84
2023/05/31 05:01:39;;;;;;;27.15;10.23;;;;;;;-142.57;100.00;115900.28;4849534;29;20520;-84
2023/05/31 05:04:11;;;;;;;28.60;10.13;;;;;;;-142.57;98.63;115900.28;4886608;29;20158;-84
2023/05/31 05:06:40;;;;;;;19.23;10.48;;;;;;;-142.57;99.87;115900.28;4883717;29;20566;-83
2023/05/31 05:09:06;;;;;;;27.85;10.50;;;;;;;-142.57;99.80;115900.28;4866789;29;20045;-82
2023/05/31 05:11:34;;;;;;;26.60;10.85;;;;;;;-142.57;97.00;115900.28;4882489;29;20530;-84
2023/05/31 05:14:02;;;;;;;27.35;11.10;;;;;;;-142.57;96.79;115900.28;4865718;29;20617;-86
2023/05/31 05:16:30;;;;;;;23.63;11.32;;;;;;;-142.57;96.64;115900.28;4883559;29;20052;-87
2023/05/31 05:18:57;;;;;;;25.75;10.13;;;;;;;-142.57;96.86;115900.28;4850241;29;20391;-86
2023/05/31 05:21:25;;;;;;;18.05;10.18;;;;;;;-142.57;95.55;115900.28;4881322;29;20036;-83
2023/05/31 05:23:52;;;;;;;20.25;10.15;;;;;;;-142.57;94.60;115900.28;4866341;29;20029;-88
2023/05/31 05:26:18;;;;;;;22.13;11.07;;;;;;;-142.57;92.67;115900.28;4882670;29;20089;-84
2023/05/31 05:28:45;;;;;;;27.73;10.77;;;;;;;-142.57;92.43;115900.28;4881531;29;20559;-86
2023/05/31 05:31:10;;;;;;;27.77;10.98;;;;;;;-142.57;90.82;115900.28;4865142;29;20041;-81
2023/05/31 05:33:40;;;;;;;22.70;10.50;;;;;;;-142.57;90.61;115900.28;4864090;29;20116;-83
2023/05/31 05:36:07;;;;;;;21.25;9.98;;;;;;;-142.57;89.27;115900.28;4864388;29;20037;-85
2023/05/31 05:38:41;;;;;;;19.10;9.80;;;;;;;-142.57;87.55;115900.28;4863907;29;20033;-86
2023/05/31 05:41:10;;;;;;;23.02;9.90;;;;;;;-142.57;86.37;115900.28;4863779;29;20033;-86
2023/05/31 05:43:37;;;;;;;22.15;10.25;;;;;;;-142.57;84.17;115900.28;4864568;29;20033;-87
2023/05/31 05:46:08;;;;;;;20.13;9.98;;;;;;;-142.57;83.12;115900.28;4864405;29;20504;-84
2023/05/31 05:48:33;;;;;;;20.02;10.60;;;;;;;-142.57;82.73;115900.28;4863867;29;20037;-85
2023/05/31 05:50:59;;;;;;;24.98;10.13;;;;;;;-142.57;78.30;115900.28;4864954;29;20444;-86
2023/05/31 05:53:27;;;;;;;19.13;9.68;;;;;;;-142.57;79.17;115900.28;4866516;29;20121;-85
2023/05/31 05:55:53;;;;;;;22.35;10.25;;;;;;;-142.57;78.11;115900.28;4866122;29;20029;-85
2023/05/31 05:58:22;;;;;;;19.02;10.48;;;;;;;-142.57;75.91;115900.28;4865180;29;20055;-81
2023/05/31 06:00:59;;;;;;;26.88;9.98;;;;;;;-142.57;74.68;115900.28;4880668;29;20509;-83
2023/05/31 06:03:26;;;;;;;26.40;9.65;;;;;;;-142.57;71.19;115900.28;4863795;29;20060;-84
2023/05/31 06:05:51;;;;;;;20.60;7.70;;;;;;;-142.57;64.73;115900.28;4863499;29;20039;-85
2023/05/31 06:08:18;;;;;;;17.02;8.48;;;;;;;-142.57;66.43;115900.28;4863804;29;20136;-85
2023/05/31 06:10:43;;;;;;;18.65;7.68;;;;;;;-142.57;65.39;115900.28;4863906;29;20454;-86
2023/05/31 06:13:09;;;;;;;17.17;8.90;;;;;;;-142.57;66.86;115900.28;4863352;29;20041;-86
2023/05/31 06:15:34;;;;;;;19.38;8.13;;;;;;;-142.57;66.71;115900.28;4847599;29;20045;-84
2023/05/31 06:18:01;;;;;;;16.15;7.35;;;;;;;-142.57;66.46;115900.28;4864081;29;20039;-82
2023/05/31 06:20:27;;;;;;;16.40;7.10;;;;;;;-142.57;64.43;115900.28;4879289;29;20487;-86
2023/05/31 06:22:54;;;;;;;13.13;7.38;;;;;;;-142.57;63.32;115900.28;4862381;29;20097;-85
2023/05/31 06:25:22;;;;;;;21.58;6.95;;;;;;;-142.57;64.23;115900.28;4862677;29;20037;-85
2023/05/31 06:27:48;;;;;;;14.00;7.72;;;;;;;-142.57;62.91;115900.28;4848056;29;20065;-86
2023/05/31 06:30:15;;;;;;;16.83;7.28;;;;;;;-142.57;62.62;115900.28;4863183;29;20089;-85
2023/05/31 06:32:45;;;;;;;15.90;7.68;;;;;;;-142.57;64.39;115900.28;4880772;29;20526;-86
2023/05/31 06:35:16;;;;;;;15.45;7.95;;;;;;;-142.57;64.71;115900.28;4862645;29;20040;-85
2023/05/31 06:37:44;;;;;;;15.30;7.63;;;;;;;-142.57;63.86;115900.28;4862352;29;20453;-80
2023/05/31 06:40:11;;;;;;;16.90;7.18;;;;;;;-142.57;63.73;115900.28;4862021;29;20029;-81
2023/05/31 06:42:38;;;;;;;13.68;7.40;;;;;;;-142.57;63.25;115900.28;4893209;29;20463;-82
2023/05/31 06:45:07;;;;;;;16.95;7.68;;;;;;;-142.57;62.94;115900.28;4880120;29;20056;-85
2023/05/31 06:47:52;;;;;;;16.35;7.65;;;;;;;-142.57;57.91;115900.28;4880690;29;20127;-83
2023/05/31 06:50:20;;;;;;;15.82;7.47;;;;;;;-142.57;56.64;115900.28;4879183;29;20084;-81
2023/05/31 06:52:46;;;;;;;20.95;7.78;;;;;;;-142.57;55.70;115900.28;4879610;29;20064;-83
2023/05/31 06:55:31;;;;;;;15.10;6.90;;;;;;;-142.57;50.60;115900.28;4874874;29;20045;-83
2023/05/31 06:58:00;;;;;;;15.10;6.95;;;;;;;-142.57;47.43;115900.28;4862065;29;20037;-79
2023/05/31 07:00:28;;;;;;;13.55;6.80;;;;;;;-142.57;47.74;115900.28;4878669;29;20029;-78
2023/05/31 07:02:54;;;;;;;19.83;7.22;;;;;;;-142.57;48.46;115900.28;4862157;29;20033;-81
2023/05/31 07:05:20;;;;;;;13.20;6.57;;;;;;;-142.57;47.18;115900.28;4865812;29;20622;-82
2023/05/31 07:07:47;;;;;;;28.67;7.72;;;;;;;-142.57;49.39;115900.28;4873104;29;20578;-82
2023/05/31 07:10:13;;;;;;;12.00;6.85;;;;;;;-142.57;46.10;115900.28;4877806;29;20105;-81
2023/05/31 07:12:39;;;;;;;15.80;6.22;;;;;;;-142.57;44.55;115900.28;4861861;29;20037;-80
2023/05/31 07:15:05;;;;;;;10.02;6.90;;;;;;;-142.57;45.50;115900.28;4878285;29;20357;-80
2023/05/31 07:17:31;;;;;;;9.90;5.68;;;;;;;-142.57;45.73;115900.28;4861640;29;20124;-83
2023/05/31 07:19:56;;;;;;;11.23;6.40;;;;;;;-142.57;45.44;115900.28;4866860;29;20124;-85
2023/05/31 07:22:22;;;;;;;11.93;6.40;;;;;;;-142.57;45.86;115900.28;4878173;29;20136;-83
2023/05/31 07:24:48;;;;;;;14.63;6.47;;;;;;;-142.57;44.82;115900.28;4882271;29;20041;-81
2023/05/31 07:27:14;;;;;;;12.77;6.88;;;;;;;-142.57;46.03;115900.28;4878750;29;20037;-81
2023/05/31 07:29:39;;;;;;;12.23;6.53;;;;;;;-142.57;47.10;115900.28;4878870;29;20411;-84
2023/05/31 07:32:05;;;;;;;12.52;7.40;;;;;;;-142.57;48.20;115900.28;4878706;29;20041;-82
2023/05/31 07:34:31;;;;;;;13.18;7.38;;;;;;;-142.57;49.34;115900.28;4880372;29;20033;-86
2023/05/31 07:36:57;;;;;;;14.52;7.07;;;;;;;-142.57;47.47;115900.28;4883709;29;20116;-83
2023/05/31 07:39:22;;;;;;;17.95;6.90;;;;;;;-142.57;47.42;115900.28;4883574;29;20460;-85
2023/05/31 07:41:48;;;;;;;10.98;6.57;;;;;;;-142.57;48.11;115900.28;4882998;29;20045;-78
2023/05/31 07:44:16;;;;;;;13.23;6.88;;;;;;;-142.57;46.70;115900.28;4883197;29;20112;-82
2023/05/31 07:46:42;;;;;;;13.07;7.28;;;;;;;-142.57;45.69;115900.28;4882713;29;20028;-83
2023/05/31 07:49:08;;;;;;;17.35;7.50;;;;;;;-142.57;45.07;115900.28;4866437;29;20124;-80
2023/05/31 07:51:33;;;;;;;13.80;6.90;;;;;;;-142.57;42.98;115900.28;4882543;29;20125;-81
2023/05/31 07:53:59;;;;;;;12.25;6.80;;;;;;;-142.57;42.37;115900.28;4883895;29;20168;-82
2023/05/31 07:56:25;;;;;;;16.98;6.90;;;;;;;-142.57;43.45;115900.28;4881854;29;20115;-81
2023/05/31 07:58:51;;;;;;;11.43;6.15;;;;;;;-142.57;43.43;115900.28;4881017;29;20025;-82
2023/05/31 08:01:16;;;;;;;10.13;6.53;;;;;;;-142.57;40.66;115900.28;4878680;29;20495;-85
2023/05/31 08:03:42;;;;;;;15.32;6.03;;;;;;;-142.57;40.50;115900.28;4881830;29;20037;-80
2023/05/31 08:06:07;;;;;;;15.68;6.57;;;;;;;-142.57;40.33;115900.28;4880916;29;20137;-82
2023/05/31 08:08:33;;;;;;;9.77;6.05;;;;;;;-142.57;40.19;115900.28;4882508;29;20040;-85
2023/05/31 08:11:00;;;;;;;10.70;6.63;;;;;;;-142.57;39.92;115900.28;4882736;29;20067;-84
2023/05/31 08:13:26;;;;;;;11.18;6.38;;;;;;;-142.57;40.09;115900.28;4881094;29;20048;-82
2023/05/31 08:15:52;;;;;;;14.75;6.15;;;;;;;-142.57;40.27;115900.28;4881193;29;20089;-85
2023/05/31 08:18:19;;;;;;;12.70;6.43;;;;;;;-142.57;41.59;115900.28;4865000;29;20173;-84
2023/05/31 08:20:45;;;;;;;17.58;6.20;;;;;;;-142.57;40.53;115900.28;4880856;29;20524;-85
2023/05/31 08:23:20;;;;;;;11.32;5.97;;;;;;;-142.57;41.44;115900.28;4880391;29;20064;-86
2023/05/31 08:25:46;;;;;;;13.60;6.65;;;;;;;-142.57;41.56;115900.28;4880621;29;20041;-85
2023/05/31 08:28:12;;;;;;;10.60;6.88;;;;;;;-142.57;40.75;115900.28;4863897;29;20040;-82
2023/05/31 08:30:38;;;;;;;11.98;6.28;;;;;;;-142.57;41.14;115900.28;4880359;29;20040;-85
2023/05/31 08:33:03;;;;;;;14.38;6.57;;;;;;;-142.57;41.25;115900.28;4880997;29;20091;-88
2023/05/31 08:35:29;;;;;;;12.88;6.65;;;;;;;-142.57;42.00;115900.28;4863790;29;20029;-83
2023/05/31 08:37:55;;;;;;;10.73;6.32;;;;;;;-142.57;41.92;115900.28;4880499;29;20041;-85
2023/05/31 08:40:22;;;;;;;11.13;5.63;;;;;;;-142.57;41.63;115900.28;4881002;29;20478;-87
2023/05/31 08:43:07;;;;;;;15.85;6.43;;;;;;;-142.57;41.32;115900.28;4864118;29;20056;-84
2023/05/31 08:45:35;;;;;;;16.52;6.10;;;;;;;-142.57;40.45;115900.28;4881261;29;20041;-88
2023/05/31 08:48:29;;;;;;;14.00;6.35;;;;;;;-142.57;39.71;115900.28;4865650;29;20135;-82
2023/05/31 08:50:57;;;;;;;12.00;6.38;;;;;;;-142.57;39.73;115900.28;4891035;29;20176;-83
2023/05/31 08:53:25;;;;;;;11.50;6.57;;;;;;;-142.57;38.06;115900.28;4864554;29;20037;-85
2023/05/31 08:55:51;;;;;;;9.55;6.57;;;;;;;-142.57;38.43;115900.28;4864056;29;20040;-81
2023/05/31 08:58:18;;;;;;;12.27;6.70;;;;;;;-142.57;38.13;115900.28;4880552;29;20041;-83
2023/05/31 09:00:46;;;;;;;15.40;7.20;;;;;;;-142.57;39.09;115900.28;4895787;29;20035;-86
2023/05/31 09:03:12;;;;;;;11.82;6.40;;;;;;;-142.57;38.82;115900.28;4882636;29;20132;-86
2023/05/31 09:05:37;;;;;;;11.30;6.68;;;;;;;-142.57;39.12;115900.28;4899405;29;20060;-83
2023/05/31 09:08:03;;;;;;;17.48;6.95;;;;;;;-142.57;39.35;115900.28;4900277;29;20431;-86
2023/05/31 09:10:29;;;;;;;12.68;6.15;;;;;;;-142.57;40.09;115900.28;4883822;29;20047;-84
2023/05/31 09:12:56;;;;;;;14.70;6.68;;;;;;;-142.57;39.90;115900.28;4867281;29;20033;-83
2023/05/31 09:15:25;;;;;;;17.80;6.75;;;;;;;-142.57;41.58;115900.28;4900595;29;20029;-82
2023/05/31 09:17:51;;;;;;;16.63;6.35;;;;;;;-142.57;42.50;115900.28;4901191;29;20513;-83
2023/05/31 09:20:18;;;;;;;10.82;6.63;;;;;;;-142.57;42.27;115900.28;4900192;29;20044;-81
2023/05/31 09:22:49;;;;;;;12.85;6.47;;;;;;;-142.57;41.97;115900.28;4881530;29;20454;-86
2023/05/31 09:25:15;;;;;;;16.40;7.88;;;;;;;-142.57;43.08;115900.28;4899626;29;20486;-88
2023/05/31 09:27:40;;;;;;;11.88;6.68;;;;;;;-142.57;43.56;115900.28;4899072;29;20070;-83
2023/05/31 09:30:14;;;;;;;18.15;7.50;;;;;;;-142.57;42.56;115900.28;4882163;29;20044;-86
2023/05/31 09:32:40;;;;;;;17.05;7.45;;;;;;;-142.57;42.29;115900.28;4898598;29;20475;-85
2023/05/31 09:35:17;;;;;;;16.33;6.70;;;;;;;-142.57;40.99;115900.28;4898867;29;20491;-82
2023/05/31 09:37:46;;;;;;;13.10;6.80;;;;;;;-142.57;42.37;115900.28;4898383;29;20465;-85
2023/05/31 09:40:14;;;;;;;14.82;6.60;;;;;;;-142.57;41.31;115900.28;4898830;29;20044;-86
2023/05/31 09:42:47;;;;;;;13.52;7.15;;;;;;;-142.57;40.28;115900.28;4899291;29;20037;-87
2023/05/31 09:45:13;;;;;;;13.60;6.25;;;;;;;-142.57;40.81;115900.28;4900279;29;20032;-85
2023/05/31 09:47:39;;;;;;;16.70;7.15;;;;;;;-142.57;41.26;115900.28;4897466;29;20051;-85
2023/05/31 09:50:08;;;;;;;14.23;7.10;;;;;;;-142.57;39.56;115900.28;4879638;29;20453;-88
2023/05/31 09:52:37;;;;;;;10.45;6.00;;;;;;;-142.57;39.15;115900.28;4860252;29;20043;-87
2023/05/31 09:55:21;;;;;;;13.45;6.10;;;;;;;-142.57;39.33;115900.28;4863009;29;20032;-86
2023/05/31 09:57:46;;;;;;;14.40;6.82;;;;;;;-142.57;40.21;115900.28;4848095;29;20076;-86
2023/05/31 10:00:17;;;;;;;13.43;6.55;;;;;;;-142.57;40.11;115900.28;4880143;29;20135;-84
2023/05/31 10:02:53;;;;;;;14.02;6.93;;;;;;;-142.57;40.15;115900.28;4880204;29;20033;-86
2023/05/31 10:05:20;;;;;;;13.30;7.07;;;;;;;-142.57;40.90;115900.28;4861098;29;20147;-85
2023/05/31 10:07:48;;;;;;;11.65;6.65;;;;;;;-142.57;40.39;115900.28;4885851;29;20097;-85
2023/05/31 10:10:15;;;;;;;10.05;6.38;;;;;;;-142.57;39.35;115900.28;4870247;29;20050;-89
2023/05/31 10:12:53;;;;;;;14.73;7.10;;;;;;;-142.57;40.08;115900.28;4878843;29;20112;-85
2023/05/31 10:15:24;;;;;;;11.93;7.38;;;;;;;-142.57;39.18;115900.28;4878190;29;20116;-86
2023/05/31 10:18:10;;;;;;;13.38;7.25;;;;;;;-142.57;38.81;115900.28;4878986;29;20025;-85
2023/05/31 10:20:51;;;;;;;17.33;7.35;;;;;;;-142.57;39.13;115900.28;4877519;29;20112;-85
2023/05/31 10:23:22;;;;;;;11.35;6.55;;;;;;;-142.57;38.62;115900.28;4865714;29;20041;-84
2023/05/31 10:25:59;;;;;;;16.45;6.88;;;;;;;-142.57;38.43;115900.28;4871750;29;20037;-87
2023/05/31 10:28:28;;;;;;;15.63;6.68;;;;;;;-142.57;37.64;115900.28;4888206;29;20045;-86
2023/05/31 10:30:54;;;;;;;12.65;6.38;;;;;;;-142.57;36.39;115900.28;4871718;29;20112;-86
2023/05/31 10:33:22;;;;;;;12.63;6.60;;;;;;;-142.57;35.81;115900.28;4886461;29;20036;-85
2023/05/31 10:35:50;;;;;;;15.73;6.32;;;;;;;-142.57;35.55;115900.28;4871376;29;20048;-89
2023/05/31 10:38:20;;;;;;;12.20;5.95;;;;;;;-142.57;35.64;115900.28;4887700;29;20132;-86
2023/05/31 10:40:52;;;;;;;12.73;6.03;;;;;;;-142.57;35.78;115900.28;4888077;29;20383;-84
2023/05/31 10:43:56;;;;;;;11.00;6.22;;;;;;;-142.57;35.49;115900.28;4887715;29;20036;-87
2023/05/31 10:46:27;;;;;;;10.85;5.78;;;;;;;-142.57;35.60;115900.28;4791576;29;20066;-89
2023/05/31 10:48:58;;;;;;;9.75;5.50;;;;;;;-142.57;35.36;115900.28;4871008;29;20132;-86
2023/05/31 10:51:46;;;;;;;9.20;5.73;;;;;;;-142.57;35.24;115900.28;4869811;29;20091;-84
2023/05/31 10:54:27;;;;;;;14.60;5.80;;;;;;;-142.57;34.93;115900.28;4882759;29;20277;-89
2023/05/31 10:56:58;;;;;;;11.68;5.63;;;;;;;-142.57;35.69;115900.28;4879292;29;20029;-87
2023/05/31 10:59:26;;;;;;;13.68;5.90;;;;;;;-142.57;36.61;115900.28;4879859;29;20037;-88
2023/05/31 11:01:53;;;;;;;11.98;6.43;;;;;;;-142.57;36.70;115900.28;4879025;29;20052;-84
2023/05/31 11:04:20;;;;;;;13.13;5.75;;;;;;;-142.57;36.52;115900.28;4880542;29;20029;-89